Big Lake, Texas
Current Conditions -  °F | °C
As of 3:35 PM on Thursday 23 Oct 2014 (Local Time) from KOZA Reporting Station
Overcast Overcast  
Wind Chill: 70°   Ceiling: 1700
Heat Index: 70°   Visibility: 10mi
Dew Point: 61°   Wind: 10mph
Humidity: 73%   Direction: 170°S
Pressure: 30.15"   Gusts: NA
Location:  31.19°N, 101.46°W
Report Text: KOZA 232035Z AUTO 17009KT 10SM OVC017 21/16 A3015 RMK AO2
Loading
Personal Weather Stations






























Interactive Weather Map New forecast layout! Learn more

10-Day Weather Forecast

Advertisements
Track Severe Weather on mobile